createdAt,value
2023-01-13T00:01:26.293Z,34.83
2023-01-13T00:03:54.134Z,36.20
2023-01-13T00:06:26.019Z,43.63
2023-01-13T00:08:55.087Z,43.72
2023-01-13T00:11:23.245Z,38.75
2023-01-13T00:13:52.396Z,36.30
2023-01-13T00:16:21.324Z,42.97
2023-01-13T00:18:49.908Z,49.45
2023-01-13T00:21:20.352Z,50.13
2023-01-13T00:23:47.903Z,40.97
2023-01-13T00:26:18.974Z,40.83
2023-01-13T00:28:47.334Z,47.70
2023-01-13T00:31:18.318Z,43.05
2023-01-13T00:33:46.222Z,38.83
2023-01-13T00:36:15.243Z,39.42
2023-01-13T00:38:43.242Z,38.13
2023-01-13T00:41:17.999Z,26.42
2023-01-13T00:43:45.779Z,36.22
2023-01-13T00:46:16.456Z,40.17
2023-01-13T00:51:15.148Z,40.38
2023-01-13T00:53:45.573Z,31.35
2023-01-13T00:58:58.962Z,31.70
2023-01-13T01:01:27.372Z,37.00
2023-01-13T01:03:55.123Z,38.08
2023-01-13T01:06:25.559Z,40.78
2023-01-13T01:08:55.063Z,41.42
2023-01-13T01:11:25.984Z,24.38
2023-01-13T01:13:55.464Z,35.55
2023-01-13T01:16:24.567Z,38.07
2023-01-13T01:18:53.360Z,36.53
2023-01-13T01:21:22.322Z,38.88
2023-01-13T01:23:51.425Z,30.70
2023-01-13T01:26:22.219Z,43.13
2023-01-13T01:28:49.976Z,36.40
2023-01-13T01:31:22.832Z,37.13
2023-01-13T01:33:51.155Z,45.85
2023-01-13T01:36:20.462Z,37.40
2023-01-13T01:38:48.280Z,30.00
2023-01-13T01:41:19.230Z,30.27
2023-01-13T01:44:03.285Z,31.55
2023-01-13T01:46:39.290Z,28.00
2023-01-13T01:49:18.395Z,42.78
2023-01-13T01:51:58.247Z,35.72
2023-01-13T01:54:53.289Z,40.38
2023-01-13T01:57:26.687Z,44.42
2023-01-13T01:59:54.622Z,45.08
2023-01-13T02:02:22.757Z,39.38
2023-01-13T02:04:54.295Z,33.55
2023-01-13T02:07:25.761Z,28.95
2023-01-13T02:09:56.324Z,32.90
2023-01-13T02:12:32.134Z,30.85
2023-01-13T02:15:11.096Z,95.45
2023-01-13T02:17:55.377Z,159.88
2023-01-13T02:20:51.201Z,324.25
2023-01-13T02:23:57.239Z,131.98
2023-01-13T02:26:47.474Z,40.85
2023-01-13T02:30:30.190Z,35.08
2023-01-13T02:33:31.357Z,31.33
2023-01-13T02:38:38.574Z,38.42
2023-01-13T02:41:40.383Z,41.17
2023-01-13T02:44:11.259Z,38.67
2023-01-13T02:46:59.090Z,48.28
2023-01-13T02:49:37.725Z,33.75
2023-01-13T02:52:28.222Z,84.32
2023-01-13T02:55:01.594Z,128.90
2023-01-13T02:57:33.229Z,104.45
2023-01-13T03:00:01.415Z,60.67
2023-01-13T03:02:28.933Z,37.95
2023-01-13T03:04:58.606Z,42.10
2023-01-13T03:07:43.452Z,38.20
2023-01-13T03:10:30.187Z,51.05
2023-01-13T03:13:16.308Z,39.88
2023-01-13T03:16:12.739Z,39.83
2023-01-13T03:18:55.387Z,41.17
2023-01-13T03:21:53.702Z,42.65
2023-01-13T03:24:35.261Z,53.85
2023-01-13T03:27:07.208Z,55.17
2023-01-13T03:29:40.492Z,43.17
2023-01-13T03:32:08.677Z,77.15
2023-01-13T03:34:46.037Z,82.13
2023-01-13T03:37:16.571Z,45.03
2023-01-13T03:39:50.973Z,41.75
2023-01-13T03:42:22.244Z,45.83
2023-01-13T03:44:55.143Z,35.05
2023-01-13T03:47:32.715Z,44.30
2023-01-13T03:50:12.564Z,70.20
2023-01-13T03:52:47.131Z,48.83
2023-01-13T03:55:20.785Z,35.05
2023-01-13T03:58:28.569Z,39.85
2023-01-13T04:01:30.442Z,33.88
2023-01-13T04:03:59.181Z,33.47
2023-01-13T04:06:42.401Z,30.55
2023-01-13T04:09:18.912Z,44.25
2023-01-13T04:11:53.940Z,44.72
2023-01-13T04:14:25.179Z,45.25
2023-01-13T04:16:56.878Z,47.45
2023-01-13T04:19:25.434Z,40.50
2023-01-13T04:21:53.061Z,57.53
2023-01-13T04:24:20.352Z,44.25
2023-01-13T04:26:47.686Z,53.63
2023-01-13T04:29:16.415Z,45.88
2023-01-13T04:31:44.815Z,34.97
2023-01-13T04:34:13.541Z,35.38
2023-01-13T04:36:40.865Z,39.83
2023-01-13T04:39:08.221Z,43.28
2023-01-13T04:41:53.982Z,38.35
2023-01-13T04:44:21.350Z,35.85
2023-01-13T04:46:48.747Z,45.42
2023-01-13T04:49:16.443Z,45.33
2023-01-13T04:51:44.198Z,50.72
2023-01-13T04:54:11.779Z,36.97
2023-01-13T04:56:40.648Z,40.30
2023-01-13T04:59:10.538Z,41.33
2023-01-13T05:01:38.675Z,32.90
2023-01-13T05:04:15.655Z,35.38
2023-01-13T05:06:43.643Z,37.95
2023-01-13T05:09:13.470Z,35.90
2023-01-13T05:11:59.187Z,39.83
2023-01-13T05:14:45.638Z,28.77
2023-01-13T05:17:23.103Z,34.13
2023-01-13T05:19:50.890Z,36.38
2023-01-13T05:22:36.475Z,28.17
2023-01-13T05:25:22.123Z,192.10
2023-01-13T05:27:53.298Z,59.92
2023-01-13T05:32:57.535Z,72.25
2023-01-13T05:35:25.989Z,58.60
2023-01-13T05:37:55.390Z,36.00
2023-01-13T05:40:41.382Z,51.20
2023-01-13T05:43:21.125Z,49.17
2023-01-13T05:46:08.170Z,41.80
2023-01-13T05:48:40.988Z,40.67
2023-01-13T05:51:10.439Z,46.88
2023-01-13T05:53:38.090Z,68.75
2023-01-13T05:56:07.246Z,72.18
2023-01-13T05:58:35.076Z,59.83
2023-01-13T06:01:05.850Z,41.70
2023-01-13T06:03:36.564Z,33.05
2023-01-13T06:06:05.286Z,39.95
2023-01-13T06:08:32.880Z,42.75
2023-01-13T06:11:00.422Z,54.03
2023-01-13T06:13:28.300Z,46.28
2023-01-13T06:15:59.409Z,47.50
2023-01-13T06:18:27.948Z,65.88
2023-01-13T06:20:57.099Z,49.83
2023-01-13T06:23:26.104Z,44.08
2023-01-13T06:26:17.801Z,34.63
2023-01-13T06:28:45.882Z,43.13
2023-01-13T06:31:14.762Z,58.97
2023-01-13T06:33:58.044Z,52.17
2023-01-13T06:36:39.845Z,51.67
2023-01-13T06:39:09.640Z,46.00
2023-01-13T06:41:55.565Z,52.78
2023-01-13T06:44:24.687Z,69.03
2023-01-13T06:46:52.841Z,48.10
2023-01-13T06:49:21.715Z,49.45
2023-01-13T06:51:49.740Z,58.92
2023-01-13T06:54:17.039Z,58.55
2023-01-13T06:56:45.469Z,68.68
2023-01-13T06:59:13.116Z,53.05
2023-01-13T07:01:41.457Z,48.85
2023-01-13T07:04:08.922Z,47.88
2023-01-13T07:06:36.291Z,57.00
2023-01-13T07:09:05.094Z,45.70
2023-01-13T07:11:33.992Z,48.05
2023-01-13T07:14:22.194Z,38.47
2023-01-13T07:16:49.508Z,57.63
2023-01-13T07:19:23.382Z,46.67
2023-01-13T07:21:52.960Z,49.58
2023-01-13T07:24:21.062Z,53.35
2023-01-13T07:26:50.589Z,53.88
2023-01-13T07:29:18.227Z,61.65
2023-01-13T07:31:48.935Z,49.22
2023-01-13T07:34:17.240Z,64.05
2023-01-13T07:36:44.737Z,78.80
2023-01-13T07:39:12.711Z,68.40
2023-01-13T07:41:58.517Z,74.60
2023-01-13T07:44:34.161Z,71.25
2023-01-13T07:47:03.427Z,73.70
2023-01-13T07:49:32.410Z,46.05
2023-01-13T07:51:59.877Z,60.60
2023-01-13T07:54:40.302Z,49.00
2023-01-13T07:57:08.911Z,82.60
2023-01-13T07:59:36.301Z,126.28
2023-01-13T08:02:03.928Z,80.57
2023-01-13T08:04:31.888Z,56.83
2023-01-13T08:07:00.286Z,68.53
2023-01-13T08:09:28.069Z,62.42
2023-01-13T08:12:15.358Z,59.40
2023-01-13T08:14:44.833Z,66.57
2023-01-13T08:17:15.447Z,72.68
2023-01-13T08:19:44.432Z,83.72
2023-01-13T08:22:11.783Z,78.25
2023-01-13T08:24:39.115Z,81.43
2023-01-13T08:27:06.651Z,71.43
2023-01-13T08:29:34.132Z,59.20
2023-01-13T08:32:01.641Z,53.63
2023-01-13T08:34:28.995Z,61.92
2023-01-13T08:36:57.187Z,55.50
2023-01-13T08:39:26.344Z,52.72
2023-01-13T08:41:58.950Z,61.00
2023-01-13T08:44:30.129Z,56.95
2023-01-13T08:46:57.870Z,67.65
2023-01-13T08:49:26.639Z,71.88
2023-01-13T08:51:54.609Z,76.35
2023-01-13T08:54:22.164Z,71.35
2023-01-13T08:56:50.739Z,79.03
2023-01-13T08:59:20.876Z,74.30
2023-01-13T09:01:48.677Z,76.43
2023-01-13T09:04:23.739Z,57.13
2023-01-13T09:06:52.317Z,52.38
2023-01-13T09:09:19.580Z,59.78
2023-01-13T09:12:09.050Z,71.93
2023-01-13T09:14:38.622Z,59.45
2023-01-13T09:17:07.531Z,67.07
2023-01-13T09:19:35.474Z,66.93
2023-01-13T09:22:03.636Z,65.38
2023-01-13T09:24:31.671Z,64.47
2023-01-13T09:26:59.054Z,61.35
2023-01-13T09:29:26.665Z,62.60
2023-01-13T09:31:54.135Z,53.03
2023-01-13T09:34:41.584Z,60.95
2023-01-13T09:37:09.618Z,66.30
2023-01-13T09:39:38.106Z,65.03
2023-01-13T09:42:41.961Z,59.08
2023-01-13T09:45:13.833Z,60.25
2023-01-13T09:48:03.551Z,54.53
2023-01-13T09:50:40.677Z,55.60
2023-01-13T09:53:18.255Z,56.45
2023-01-13T09:55:46.522Z,59.75
2023-01-13T09:58:23.498Z,55.17
2023-01-13T10:01:28.628Z,76.20
2023-01-13T10:03:55.949Z,76.60
2023-01-13T10:06:39.953Z,65.10
2023-01-13T10:09:14.843Z,95.20
2023-01-13T10:12:04.144Z,113.28
2023-01-13T10:14:39.977Z,56.73
2023-01-13T10:17:28.183Z,59.65
2023-01-13T10:20:03.168Z,65.90
2023-01-13T10:22:52.211Z,84.20
2023-01-13T10:25:33.519Z,71.97
2023-01-13T10:28:12.014Z,53.35
2023-01-13T10:30:46.471Z,58.63
2023-01-13T10:33:21.447Z,62.33
2023-01-13T10:35:59.676Z,53.58
2023-01-13T10:38:38.020Z,55.92
2023-01-13T10:41:28.002Z,55.45
2023-01-13T10:44:13.656Z,154.95
2023-01-13T10:46:59.652Z,63.38
2023-01-13T10:49:36.645Z,64.10
2023-01-13T10:52:25.159Z,48.30
2023-01-13T10:54:54.481Z,56.67
2023-01-13T10:57:25.415Z,54.90
2023-01-13T10:59:54.667Z,46.28
2023-01-13T11:02:31.530Z,48.72
2023-01-13T11:05:14.761Z,56.45
2023-01-13T11:07:50.638Z,55.40
2023-01-13T11:10:27.656Z,56.13
2023-01-13T11:13:34.112Z,53.13
2023-01-13T11:16:14.161Z,65.07
2023-01-13T11:19:12.171Z,55.22
2023-01-13T11:21:54.593Z,65.25
2023-01-13T11:24:50.827Z,70.72
2023-01-13T11:27:55.085Z,56.17
2023-01-13T11:30:52.336Z,62.53
2023-01-13T11:33:38.443Z,58.47
2023-01-13T11:39:16.735Z,59.55
2023-01-13T11:42:22.251Z,65.45
2023-01-13T11:45:01.888Z,55.67
2023-01-13T11:47:31.708Z,69.10
2023-01-13T11:50:00.754Z,48.42
2023-01-13T11:53:07.946Z,55.05
2023-01-13T11:55:40.205Z,55.92
2023-01-13T11:58:45.653Z,57.53
2023-01-13T12:01:25.408Z,60.30
2023-01-13T12:03:58.984Z,59.88
2023-01-13T12:06:33.891Z,64.63
2023-01-13T12:09:23.652Z,54.70
2023-01-13T12:12:20.409Z,53.33
2023-01-13T12:15:33.829Z,55.33
2023-01-13T12:18:20.050Z,55.17
2023-01-13T12:20:54.412Z,49.80
2023-01-13T12:23:25.566Z,61.10
2023-01-13T12:26:00.577Z,59.70
2023-01-13T12:28:55.694Z,46.53
2023-01-13T12:31:27.612Z,61.70
2023-01-13T12:34:05.527Z,81.25
2023-01-13T12:36:53.661Z,53.15
2023-01-13T12:39:46.063Z,60.10
2023-01-13T12:42:51.394Z,61.72
2023-01-13T12:45:29.219Z,50.17
2023-01-13T12:48:00.830Z,52.15
2023-01-13T12:50:28.363Z,70.30
2023-01-13T12:52:58.270Z,56.95
2023-01-13T12:55:26.608Z,59.03
2023-01-13T12:58:15.594Z,61.88
2023-01-13T13:00:46.910Z,64.70
2023-01-13T13:03:15.808Z,54.60
2023-01-13T13:05:55.684Z,60.47
2023-01-13T13:08:38.053Z,55.08
2023-01-13T13:11:37.657Z,48.40
2023-01-13T13:14:13.833Z,55.13
2023-01-13T13:16:52.180Z,62.58
2023-01-13T13:19:22.624Z,52.42
2023-01-13T13:22:18.155Z,54.72
2023-01-13T13:24:49.314Z,52.50
2023-01-13T13:27:48.856Z,56.30
2023-01-13T13:30:34.587Z,51.40
2023-01-13T13:33:33.872Z,45.63
2023-01-13T13:36:33.421Z,44.47
2023-01-13T13:39:34.789Z,56.55
2023-01-13T13:42:40.998Z,58.88
2023-01-13T13:45:47.993Z,53.20
2023-01-13T13:48:31.761Z,57.05
2023-01-13T13:51:03.627Z,54.20
2023-01-13T13:53:38.234Z,47.47
2023-01-13T13:56:16.827Z,48.70
2023-01-13T13:58:44.414Z,58.85
2023-01-13T14:01:37.208Z,48.25
2023-01-13T14:04:07.658Z,41.80
2023-01-13T14:06:35.613Z,45.15
2023-01-13T14:09:04.476Z,38.78
2023-01-13T14:11:34.290Z,45.35
2023-01-13T14:14:07.264Z,43.67
2023-01-13T14:16:37.672Z,115.13
2023-01-13T14:19:05.180Z,81.78
2023-01-13T14:21:34.357Z,51.35
2023-01-13T14:24:22.695Z,43.72
2023-01-13T14:26:53.542Z,46.28
2023-01-13T14:29:25.099Z,41.20
2023-01-13T14:31:55.315Z,49.17
2023-01-13T14:34:31.751Z,53.83
2023-01-13T14:37:03.054Z,53.70
2023-01-13T14:39:41.045Z,50.00
2023-01-13T14:42:17.512Z,52.15
2023-01-13T14:44:52.461Z,55.28
2023-01-13T14:47:29.942Z,48.72
2023-01-13T14:50:14.412Z,54.13
2023-01-13T14:52:51.277Z,56.95
2023-01-13T14:55:37.535Z,89.78
2023-01-13T14:58:38.195Z,90.93
2023-01-13T15:01:29.134Z,73.75
2023-01-13T15:04:17.741Z,53.58
2023-01-13T15:06:49.556Z,52.70
2023-01-13T15:09:25.383Z,45.65
2023-01-13T15:11:54.492Z,48.92
2023-01-13T15:14:32.478Z,59.35
2023-01-13T15:16:59.870Z,57.83
2023-01-13T15:19:27.778Z,56.42
2023-01-13T15:21:55.636Z,59.47
2023-01-13T15:24:22.905Z,106.70
2023-01-13T15:26:51.355Z,70.05
2023-01-13T15:29:19.241Z,87.00
2023-01-13T15:31:46.943Z,95.97
2023-01-13T15:34:14.510Z,114.65
2023-01-13T15:36:42.889Z,111.90
2023-01-13T15:39:12.535Z,103.82
2023-01-13T15:41:59.127Z,164.82
2023-01-13T15:44:45.441Z,122.78
2023-01-13T15:47:14.703Z,122.20
2023-01-13T15:49:46.231Z,98.22
2023-01-13T15:52:28.252Z,94.55
2023-01-13T15:54:56.101Z,122.28
2023-01-13T15:57:25.018Z,102.00
2023-01-13T15:59:56.037Z,100.88
2023-01-13T16:02:25.471Z,91.47
2023-01-13T16:04:54.711Z,83.78
2023-01-13T16:07:24.618Z,114.63
2023-01-13T16:09:52.659Z,96.57
2023-01-13T16:12:20.014Z,71.45
2023-01-13T16:14:47.412Z,64.07
2023-01-13T16:17:19.176Z,60.33
2023-01-13T16:19:51.234Z,61.58
2023-01-13T16:22:18.987Z,95.30
2023-01-13T16:24:46.654Z,83.55
2023-01-13T16:27:16.205Z,53.15
2023-01-13T16:29:46.172Z,96.32
2023-01-13T16:32:14.724Z,102.75
2023-01-13T16:34:42.021Z,100.03
2023-01-13T16:37:38.709Z,82.28
2023-01-13T16:40:07.054Z,97.93
2023-01-13T16:42:35.961Z,136.00
2023-01-13T16:45:08.540Z,109.22
2023-01-13T16:47:37.458Z,81.63
2023-01-13T16:50:07.169Z,81.75
2023-01-13T16:52:35.524Z,73.95
2023-01-13T16:55:10.357Z,93.65
2023-01-13T16:57:39.787Z,118.03
2023-01-13T17:00:07.743Z,107.32
2023-01-13T17:02:35.716Z,83.40
2023-01-13T17:05:03.738Z,82.47
2023-01-13T17:07:41.614Z,80.72
2023-01-13T17:10:20.303Z,74.63
2023-01-13T17:12:47.621Z,70.85
2023-01-13T17:15:18.685Z,92.97
2023-01-13T17:17:49.590Z,93.70
2023-01-13T17:20:18.724Z,190.45
2023-01-13T17:22:49.767Z,145.20
2023-01-13T17:25:22.226Z,120.68
2023-01-13T17:27:50.799Z,95.50
2023-01-13T17:30:20.114Z,94.18
2023-01-13T17:32:47.430Z,87.07
2023-01-13T17:35:19.055Z,77.97
2023-01-13T17:37:47.034Z,90.15
2023-01-13T17:40:15.014Z,94.40
2023-01-13T17:42:42.548Z,70.53
2023-01-13T17:45:12.731Z,62.95
2023-01-13T17:47:40.201Z,68.35
2023-01-13T17:50:08.966Z,58.28
2023-01-13T17:52:36.701Z,65.30
2023-01-13T17:55:11.103Z,55.92
2023-01-13T17:57:38.455Z,52.80
2023-01-13T18:00:08.029Z,54.97
2023-01-13T18:02:39.472Z,59.47
2023-01-13T18:05:07.538Z,75.15
2023-01-13T18:07:35.063Z,65.28
2023-01-13T18:10:02.452Z,48.65
2023-01-13T18:12:30.505Z,49.60
2023-01-13T18:14:58.354Z,58.40
2023-01-13T18:17:26.938Z,85.78
2023-01-13T18:20:13.431Z,71.60
2023-01-13T18:22:59.348Z,57.83
2023-01-13T18:25:45.140Z,60.47
2023-01-13T18:28:14.293Z,135.88
2023-01-13T18:30:44.004Z,115.97
2023-01-13T18:33:12.299Z,117.78
2023-01-13T18:35:40.805Z,121.05
2023-01-13T18:38:08.873Z,121.63
2023-01-13T18:40:36.797Z,95.53
2023-01-13T18:43:04.226Z,117.05
2023-01-13T18:45:40.386Z,96.10
2023-01-13T18:48:14.669Z,95.28
2023-01-13T18:50:42.161Z,104.78
2023-01-13T18:53:16.662Z,108.18
2023-01-13T18:55:44.767Z,99.47
2023-01-13T18:58:12.455Z,92.28
2023-01-13T19:00:45.490Z,106.15
2023-01-13T19:06:36.524Z,76.93
2023-01-13T19:09:39.873Z,82.25
2023-01-13T19:12:27.255Z,64.75
2023-01-13T19:15:12.795Z,82.00
2023-01-13T19:17:56.638Z,91.28
2023-01-13T19:20:27.047Z,93.30
2023-01-13T19:23:00.367Z,113.40
2023-01-13T19:25:41.629Z,139.90
2023-01-13T19:28:18.196Z,127.13
2023-01-13T19:30:54.101Z,117.70
2023-01-13T19:33:25.922Z,91.60
2023-01-13T19:35:57.616Z,84.45
2023-01-13T19:38:30.455Z,116.35
2023-01-13T19:41:34.794Z,107.95
2023-01-13T19:44:28.786Z,103.57
2023-01-13T19:50:01.994Z,151.82
2023-01-13T19:52:38.786Z,123.65
2023-01-13T19:55:16.259Z,96.80
2023-01-13T20:00:38.635Z,123.22
2023-01-13T20:03:23.009Z,90.15
2023-01-13T20:05:55.855Z,61.55
2023-01-13T20:08:31.849Z,60.33
2023-01-13T20:11:21.507Z,43.30
2023-01-13T20:14:03.382Z,41.03
2023-01-13T20:16:39.191Z,69.45
2023-01-13T20:19:15.155Z,121.55
2023-01-13T20:21:50.829Z,84.00
2023-01-13T20:24:27.573Z,48.58
2023-01-13T20:27:10.973Z,61.30
2023-01-13T20:29:41.077Z,62.03
2023-01-13T20:32:10.119Z,47.97
2023-01-13T20:34:42.419Z,64.53
2023-01-13T20:37:21.309Z,97.75
2023-01-13T20:39:51.250Z,115.55
2023-01-13T20:42:53.222Z,175.70
2023-01-13T20:45:23.741Z,99.13
2023-01-13T20:47:51.481Z,84.10
2023-01-13T20:50:35.584Z,110.35
2023-01-13T20:53:32.664Z,159.88
2023-01-13T20:56:08.567Z,216.25
2023-01-13T20:58:41.589Z,79.15
2023-01-13T21:01:14.614Z,74.22
2023-01-13T21:03:49.367Z,89.07
2023-01-13T21:06:20.800Z,70.22
2023-01-13T21:08:49.176Z,96.70
2023-01-13T21:11:41.079Z,84.00
2023-01-13T21:14:51.764Z,70.50
2023-01-13T21:17:49.293Z,58.70
2023-01-13T21:20:23.063Z,75.18
2023-01-13T21:22:53.243Z,61.67
2023-01-13T21:25:28.375Z,60.50
2023-01-13T21:28:07.984Z,153.30
2023-01-13T21:30:41.762Z,147.20
2023-01-13T21:33:17.980Z,103.07
2023-01-13T21:35:47.151Z,58.00
2023-01-13T21:38:20.217Z,64.90
2023-01-13T21:41:09.466Z,69.28
2023-01-13T21:43:56.904Z,63.33
2023-01-13T21:46:43.449Z,81.22
2023-01-13T21:49:12.271Z,67.72
2023-01-13T21:51:39.625Z,72.18
2023-01-13T21:54:07.397Z,60.03
2023-01-13T21:56:36.169Z,58.75
2023-01-13T21:59:05.379Z,66.68
2023-01-13T22:01:32.907Z,57.17
2023-01-13T22:04:12.882Z,56.70
2023-01-13T22:06:40.718Z,68.88
2023-01-13T22:09:08.075Z,56.10
2023-01-13T22:11:36.018Z,48.17
2023-01-13T22:14:07.348Z,79.75
2023-01-13T22:16:43.348Z,91.35
2023-01-13T22:19:11.040Z,86.88
2023-01-13T22:21:39.121Z,60.00
2023-01-13T22:24:06.818Z,94.32
2023-01-13T22:26:34.785Z,89.50
2023-01-13T22:29:03.230Z,97.60
2023-01-13T22:31:32.071Z,123.13
2023-01-13T22:34:00.211Z,110.68
2023-01-13T22:36:27.704Z,103.50
2023-01-13T22:38:56.987Z,95.25
2023-01-13T22:41:24.351Z,90.05
2023-01-13T22:43:52.248Z,83.05
2023-01-13T22:46:19.812Z,107.10
2023-01-13T22:48:48.501Z,114.53
2023-01-13T22:51:18.795Z,94.45
2023-01-13T22:53:47.438Z,101.93
2023-01-13T22:56:23.446Z,127.72
2023-01-13T22:58:58.624Z,103.47
2023-01-13T23:01:28.518Z,89.03
2023-01-13T23:03:57.161Z,73.85
2023-01-13T23:06:26.672Z,87.10
2023-01-13T23:08:54.781Z,79.88
2023-01-13T23:11:26.681Z,87.50
2023-01-13T23:13:59.737Z,250.93
2023-01-13T23:16:29.086Z,108.35
2023-01-13T23:18:57.862Z,70.57
2023-01-13T23:21:28.905Z,76.97
2023-01-13T23:23:58.551Z,148.60
2023-01-13T23:26:26.920Z,72.27
2023-01-13T23:28:58.039Z,65.30
2023-01-13T23:31:26.242Z,71.57
2023-01-13T23:33:53.895Z,95.15
2023-01-13T23:36:24.579Z,85.00
2023-01-13T23:38:53.716Z,64.38
2023-01-13T23:41:25.466Z,70.43
2023-01-13T23:43:58.815Z,71.47
2023-01-13T23:46:27.940Z,85.95
2023-01-13T23:48:56.795Z,79.10
2023-01-13T23:51:26.710Z,84.90
2023-01-13T23:53:55.233Z,87.70
2023-01-13T23:56:25.379Z,127.43
2023-01-13T23:58:53.765Z,507.52
